sensor_id;sensor_type;location;lat;lon;timestamp;P1;durP1;ratioP1;P2;durP2;ratioP2
23531;SDS011;11943;52.270;20.978;2023-03-14T00:00:33;11.85;;;7.03;;
23531;SDS011;11943;52.270;20.978;2023-03-14T00:02:59;10.60;;;6.55;;
23531;SDS011;11943;52.270;20.978;2023-03-14T00:05:25;11.70;;;6.43;;
23531;SDS011;11943;52.270;20.978;2023-03-14T00:07:50;14.15;;;6.95;;
23531;SDS011;11943;52.270;20.978;2023-03-14T00:10:16;13.00;;;6.10;;
23531;SDS011;11943;52.270;20.978;2023-03-14T00:12:42;13.50;;;7.00;;
23531;SDS011;11943;52.270;20.978;2023-03-14T00:15:09;10.18;;;6.47;;
23531;SDS011;11943;52.270;20.978;2023-03-14T00:17:36;12.07;;;7.05;;
23531;SDS011;11943;52.270;20.978;2023-03-14T00:20:02;12.02;;;7.20;;
23531;SDS011;11943;52.270;20.978;2023-03-14T00:22:33;13.35;;;6.30;;
23531;SDS011;11943;52.270;20.978;2023-03-14T00:25:00;14.55;;;7.00;;
23531;SDS011;11943;52.270;20.978;2023-03-14T00:27:26;13.68;;;7.28;;
23531;SDS011;11943;52.270;20.978;2023-03-14T00:29:51;11.85;;;7.22;;
23531;SDS011;11943;52.270;20.978;2023-03-14T00:32:17;18.17;;;8.40;;
23531;SDS011;11943;52.270;20.978;2023-03-14T00:34:43;13.43;;;8.23;;
23531;SDS011;11943;52.270;20.978;2023-03-14T00:37:08;13.10;;;7.45;;
23531;SDS011;11943;52.270;20.978;2023-03-14T00:39:34;14.15;;;7.70;;
23531;SDS011;11943;52.270;20.978;2023-03-14T00:41:59;14.13;;;7.97;;
23531;SDS011;11943;52.270;20.978;2023-03-14T00:44:25;11.80;;;7.40;;
23531;SDS011;11943;52.270;20.978;2023-03-14T00:46:51;12.07;;;7.43;;
23531;SDS011;11943;52.270;20.978;2023-03-14T00:49:16;15.10;;;8.27;;
23531;SDS011;11943;52.270;20.978;2023-03-14T00:51:42;13.25;;;7.63;;
23531;SDS011;11943;52.270;20.978;2023-03-14T00:54:07;14.65;;;7.63;;
23531;SDS011;11943;52.270;20.978;2023-03-14T00:56:33;14.57;;;7.85;;
23531;SDS011;11943;52.270;20.978;2023-03-14T00:58:59;16.48;;;7.88;;
23531;SDS011;11943;52.270;20.978;2023-03-14T01:01:24;10.90;;;6.80;;
23531;SDS011;11943;52.270;20.978;2023-03-14T01:03:53;14.20;;;7.88;;
23531;SDS011;11943;52.270;20.978;2023-03-14T01:06:21;15.85;;;7.55;;
23531;SDS011;11943;52.270;20.978;2023-03-14T01:08:51;15.77;;;7.95;;
23531;SDS011;11943;52.270;20.978;2023-03-14T01:11:19;15.40;;;8.48;;
23531;SDS011;11943;52.270;20.978;2023-03-14T01:13:46;12.70;;;7.60;;
23531;SDS011;11943;52.270;20.978;2023-03-14T01:16:12;16.02;;;7.97;;
23531;SDS011;11943;52.270;20.978;2023-03-14T01:18:39;12.88;;;7.95;;
23531;SDS011;11943;52.270;20.978;2023-03-14T01:21:10;16.38;;;8.52;;
23531;SDS011;11943;52.270;20.978;2023-03-14T01:23:47;15.45;;;7.95;;
23531;SDS011;11943;52.270;20.978;2023-03-14T01:26:15;14.07;;;7.53;;
23531;SDS011;11943;52.270;20.978;2023-03-14T01:28:44;12.98;;;7.55;;
23531;SDS011;11943;52.270;20.978;2023-03-14T01:31:10;14.15;;;7.93;;
23531;SDS011;11943;52.270;20.978;2023-03-14T01:33:36;10.85;;;7.22;;
23531;SDS011;11943;52.270;20.978;2023-03-14T01:36:03;16.05;;;7.75;;
23531;SDS011;11943;52.270;20.978;2023-03-14T01:38:30;12.17;;;7.60;;
23531;SDS011;11943;52.270;20.978;2023-03-14T01:41:00;15.77;;;8.18;;
23531;SDS011;11943;52.270;20.978;2023-03-14T01:43:26;12.02;;;7.22;;
23531;SDS011;11943;52.270;20.978;2023-03-14T01:51:21;12.77;;;7.55;;
23531;SDS011;11943;52.270;20.978;2023-03-14T01:54:10;13.50;;;7.18;;
23531;SDS011;11943;52.270;20.978;2023-03-14T01:56:51;13.85;;;7.65;;
23531;SDS011;11943;52.270;20.978;2023-03-14T01:59:22;14.98;;;7.35;;
23531;SDS011;11943;52.270;20.978;2023-03-14T02:01:49;12.50;;;7.60;;
23531;SDS011;11943;52.270;20.978;2023-03-14T02:04:17;12.98;;;7.40;;
23531;SDS011;11943;52.270;20.978;2023-03-14T02:07:05;15.02;;;8.20;;
23531;SDS011;11943;52.270;20.978;2023-03-14T02:09:39;14.07;;;7.65;;
23531;SDS011;11943;52.270;20.978;2023-03-14T02:12:07;13.85;;;7.70;;
23531;SDS011;11943;52.270;20.978;2023-03-14T02:14:34;16.52;;;7.53;;
23531;SDS011;11943;52.270;20.978;2023-03-14T02:17:01;12.40;;;7.43;;
23531;SDS011;11943;52.270;20.978;2023-03-14T02:19:36;14.70;;;7.10;;
23531;SDS011;11943;52.270;20.978;2023-03-14T02:27:34;12.90;;;7.40;;
23531;SDS011;11943;52.270;20.978;2023-03-14T02:30:04;14.40;;;8.05;;
23531;SDS011;11943;52.270;20.978;2023-03-14T02:32:33;12.27;;;7.32;;
23531;SDS011;11943;52.270;20.978;2023-03-14T02:35:02;13.70;;;7.25;;
23531;SDS011;11943;52.270;20.978;2023-03-14T02:37:35;13.68;;;7.43;;
23531;SDS011;11943;52.270;20.978;2023-03-14T02:40:31;11.25;;;6.45;;
23531;SDS011;11943;52.270;20.978;2023-03-14T02:42:57;16.67;;;7.53;;
23531;SDS011;11943;52.270;20.978;2023-03-14T02:47:57;12.35;;;6.80;;
23531;SDS011;11943;52.270;20.978;2023-03-14T02:50:28;12.10;;;7.32;;
23531;SDS011;11943;52.270;20.978;2023-03-14T02:52:58;17.77;;;6.93;;
23531;SDS011;11943;52.270;20.978;2023-03-14T02:55:24;10.38;;;6.85;;
23531;SDS011;11943;52.270;20.978;2023-03-14T02:57:51;11.23;;;6.55;;
23531;SDS011;11943;52.270;20.978;2023-03-14T03:00:18;10.70;;;6.85;;
23531;SDS011;11943;52.270;20.978;2023-03-14T03:02:44;11.38;;;6.43;;
23531;SDS011;11943;52.270;20.978;2023-03-14T03:05:10;12.40;;;6.57;;
23531;SDS011;11943;52.270;20.978;2023-03-14T03:07:36;10.82;;;6.53;;
23531;SDS011;11943;52.270;20.978;2023-03-14T03:10:02;11.25;;;6.40;;
23531;SDS011;11943;52.270;20.978;2023-03-14T03:12:29;10.05;;;6.07;;
23531;SDS011;11943;52.270;20.978;2023-03-14T03:14:54;13.65;;;6.57;;
23531;SDS011;11943;52.270;20.978;2023-03-14T03:17:20;9.32;;;6.07;;
23531;SDS011;11943;52.270;20.978;2023-03-14T03:19:46;11.40;;;6.13;;
23531;SDS011;11943;52.270;20.978;2023-03-14T03:22:11;12.63;;;6.55;;
23531;SDS011;11943;52.270;20.978;2023-03-14T03:24:37;14.27;;;6.57;;
23531;SDS011;11943;52.270;20.978;2023-03-14T03:27:03;12.80;;;6.43;;
23531;SDS011;11943;52.270;20.978;2023-03-14T03:29:28;9.35;;;5.95;;
23531;SDS011;11943;52.270;20.978;2023-03-14T03:31:55;11.45;;;6.50;;
23531;SDS011;11943;52.270;20.978;2023-03-14T03:34:20;12.32;;;6.50;;
23531;SDS011;11943;52.270;20.978;2023-03-14T03:36:46;9.32;;;5.90;;
23531;SDS011;11943;52.270;20.978;2023-03-14T03:39:11;10.10;;;5.85;;
23531;SDS011;11943;52.270;20.978;2023-03-14T03:41:37;14.32;;;6.13;;
23531;SDS011;11943;52.270;20.978;2023-03-14T03:44:03;9.73;;;5.72;;
23531;SDS011;11943;52.270;20.978;2023-03-14T03:46:28;10.00;;;5.95;;
23531;SDS011;11943;52.270;20.978;2023-03-14T03:48:57;13.57;;;5.78;;
23531;SDS011;11943;52.270;20.978;2023-03-14T03:51:24;10.43;;;6.07;;
23531;SDS011;11943;52.270;20.978;2023-03-14T03:53:51;12.77;;;6.10;;
23531;SDS011;11943;52.270;20.978;2023-03-14T03:56:16;8.68;;;5.28;;
23531;SDS011;11943;52.270;20.978;2023-03-14T03:58:42;11.40;;;5.93;;
23531;SDS011;11943;52.270;20.978;2023-03-14T04:01:08;9.38;;;5.18;;
23531;SDS011;11943;52.270;20.978;2023-03-14T04:03:35;10.23;;;5.45;;
23531;SDS011;11943;52.270;20.978;2023-03-14T04:06:12;7.93;;;5.00;;
23531;SDS011;11943;52.270;20.978;2023-03-14T04:08:39;7.70;;;5.45;;
23531;SDS011;11943;52.270;20.978;2023-03-14T04:11:06;10.75;;;4.90;;
23531;SDS011;11943;52.270;20.978;2023-03-14T04:13:32;8.98;;;5.40;;
23531;SDS011;11943;52.270;20.978;2023-03-14T04:15:58;5.57;;;4.68;;
23531;SDS011;11943;52.270;20.978;2023-03-14T04:18:23;10.00;;;5.95;;
23531;SDS011;11943;52.270;20.978;2023-03-14T04:20:56;10.88;;;5.25;;
23531;SDS011;11943;52.270;20.978;2023-03-14T04:23:23;9.95;;;5.00;;
23531;SDS011;11943;52.270;20.978;2023-03-14T04:25:50;11.38;;;5.60;;
23531;SDS011;11943;52.270;20.978;2023-03-14T04:28:16;8.10;;;5.38;;
23531;SDS011;11943;52.270;20.978;2023-03-14T04:30:42;8.02;;;5.05;;
23531;SDS011;11943;52.270;20.978;2023-03-14T04:33:08;10.85;;;5.32;;
23531;SDS011;11943;52.270;20.978;2023-03-14T04:35:34;11.35;;;5.32;;
23531;SDS011;11943;52.270;20.978;2023-03-14T04:38:00;8.00;;;5.40;;
23531;SDS011;11943;52.270;20.978;2023-03-14T04:40:26;8.80;;;5.82;;
23531;SDS011;11943;52.270;20.978;2023-03-14T04:42:52;7.80;;;5.28;;
23531;SDS011;11943;52.270;20.978;2023-03-14T04:45:17;8.88;;;5.38;;
23531;SDS011;11943;52.270;20.978;2023-03-14T04:47:43;7.63;;;5.13;;
23531;SDS011;11943;52.270;20.978;2023-03-14T04:50:09;7.63;;;5.00;;
23531;SDS011;11943;52.270;20.978;2023-03-14T04:52:35;7.90;;;5.40;;
23531;SDS011;11943;52.270;20.978;2023-03-14T04:55:01;8.85;;;4.82;;
23531;SDS011;11943;52.270;20.978;2023-03-14T04:57:27;9.57;;;5.93;;
23531;SDS011;11943;52.270;20.978;2023-03-14T04:59:53;10.63;;;5.32;;
23531;SDS011;11943;52.270;20.978;2023-03-14T05:02:19;8.75;;;5.13;;
23531;SDS011;11943;52.270;20.978;2023-03-14T05:04:45;8.07;;;5.30;;
23531;SDS011;11943;52.270;20.978;2023-03-14T05:07:11;7.20;;;4.47;;
23531;SDS011;11943;52.270;20.978;2023-03-14T05:09:36;10.10;;;4.78;;
23531;SDS011;11943;52.270;20.978;2023-03-14T05:12:02;9.95;;;5.13;;
23531;SDS011;11943;52.270;20.978;2023-03-14T05:14:28;7.68;;;4.85;;
23531;SDS011;11943;52.270;20.978;2023-03-14T05:16:53;8.13;;;4.55;;
23531;SDS011;11943;52.270;20.978;2023-03-14T05:19:19;6.45;;;4.57;;
23531;SDS011;11943;52.270;20.978;2023-03-14T05:21:44;14.23;;;4.50;;
23531;SDS011;11943;52.270;20.978;2023-03-14T05:24:10;8.52;;;4.95;;
23531;SDS011;11943;52.270;20.978;2023-03-14T05:26:36;9.55;;;4.65;;
23531;SDS011;11943;52.270;20.978;2023-03-14T05:29:01;7.25;;;4.70;;
23531;SDS011;11943;52.270;20.978;2023-03-14T05:31:27;6.57;;;4.40;;
23531;SDS011;11943;52.270;20.978;2023-03-14T05:33:52;8.55;;;4.50;;
23531;SDS011;11943;52.270;20.978;2023-03-14T05:36:18;8.75;;;4.93;;
23531;SDS011;11943;52.270;20.978;2023-03-14T05:38:44;6.45;;;4.05;;
23531;SDS011;11943;52.270;20.978;2023-03-14T05:41:09;10.90;;;4.78;;
23531;SDS011;11943;52.270;20.978;2023-03-14T05:43:35;7.80;;;4.90;;
23531;SDS011;11943;52.270;20.978;2023-03-14T05:46:00;9.40;;;5.13;;
23531;SDS011;11943;52.270;20.978;2023-03-14T05:48:26;10.73;;;4.70;;
23531;SDS011;11943;52.270;20.978;2023-03-14T05:50:55;8.27;;;4.90;;
23531;SDS011;11943;52.270;20.978;2023-03-14T05:53:22;8.93;;;4.70;;
23531;SDS011;11943;52.270;20.978;2023-03-14T05:55:50;11.60;;;4.93;;
23531;SDS011;11943;52.270;20.978;2023-03-14T05:58:17;9.80;;;4.70;;
23531;SDS011;11943;52.270;20.978;2023-03-14T06:00:43;7.47;;;4.10;;
23531;SDS011;11943;52.270;20.978;2023-03-14T06:03:08;8.20;;;4.65;;
23531;SDS011;11943;52.270;20.978;2023-03-14T06:05:34;8.27;;;5.22;;
23531;SDS011;11943;52.270;20.978;2023-03-14T06:07:59;8.02;;;3.85;;
23531;SDS011;11943;52.270;20.978;2023-03-14T06:10:25;7.68;;;4.13;;
23531;SDS011;11943;52.270;20.978;2023-03-14T06:12:51;7.88;;;4.60;;
23531;SDS011;11943;52.270;20.978;2023-03-14T06:15:16;13.25;;;4.82;;
23531;SDS011;11943;52.270;20.978;2023-03-14T06:17:42;8.50;;;4.85;;
23531;SDS011;11943;52.270;20.978;2023-03-14T06:20:08;7.13;;;4.22;;
23531;SDS011;11943;52.270;20.978;2023-03-14T06:22:34;8.90;;;4.57;;
23531;SDS011;11943;52.270;20.978;2023-03-14T06:25:00;7.88;;;4.40;;
23531;SDS011;11943;52.270;20.978;2023-03-14T06:27:25;20.42;;;3.90;;
23531;SDS011;11943;52.270;20.978;2023-03-14T06:29:51;8.57;;;4.53;;
23531;SDS011;11943;52.270;20.978;2023-03-14T06:32:17;6.25;;;4.03;;
23531;SDS011;11943;52.270;20.978;2023-03-14T06:34:43;7.43;;;4.38;;
23531;SDS011;11943;52.270;20.978;2023-03-14T06:37:09;6.75;;;4.03;;
23531;SDS011;11943;52.270;20.978;2023-03-14T06:39:34;11.48;;;4.70;;
23531;SDS011;11943;52.270;20.978;2023-03-14T06:42:00;8.25;;;4.60;;
23531;SDS011;11943;52.270;20.978;2023-03-14T06:44:25;10.68;;;5.00;;
23531;SDS011;11943;52.270;20.978;2023-03-14T06:46:51;8.15;;;4.90;;
23531;SDS011;11943;52.270;20.978;2023-03-14T06:49:17;8.73;;;4.28;;
23531;SDS011;11943;52.270;20.978;2023-03-14T06:51:42;7.65;;;4.25;;
23531;SDS011;11943;52.270;20.978;2023-03-14T06:54:08;7.63;;;4.72;;
23531;SDS011;11943;52.270;20.978;2023-03-14T06:56:33;8.05;;;5.13;;
23531;SDS011;11943;52.270;20.978;2023-03-14T06:58:59;9.73;;;5.05;;
23531;SDS011;11943;52.270;20.978;2023-03-14T07:01:28;6.78;;;4.13;;
23531;SDS011;11943;52.270;20.978;2023-03-14T07:03:57;7.30;;;4.47;;
23531;SDS011;11943;52.270;20.978;2023-03-14T07:06:23;9.15;;;4.28;;
23531;SDS011;11943;52.270;20.978;2023-03-14T07:08:50;8.37;;;4.27;;
23531;SDS011;11943;52.270;20.978;2023-03-14T07:11:15;7.45;;;4.30;;
23531;SDS011;11943;52.270;20.978;2023-03-14T07:13:41;12.90;;;4.30;;
23531;SDS011;11943;52.270;20.978;2023-03-14T07:16:07;9.45;;;4.78;;
23531;SDS011;11943;52.270;20.978;2023-03-14T07:18:34;6.75;;;3.97;;
23531;SDS011;11943;52.270;20.978;2023-03-14T07:21:00;5.30;;;4.18;;
23531;SDS011;11943;52.270;20.978;2023-03-14T07:23:25;7.30;;;4.78;;
23531;SDS011;11943;52.270;20.978;2023-03-14T07:25:51;9.23;;;4.72;;
23531;SDS011;11943;52.270;20.978;2023-03-14T07:28:18;6.10;;;4.20;;
23531;SDS011;11943;52.270;20.978;2023-03-14T07:30:45;11.77;;;4.68;;
23531;SDS011;11943;52.270;20.978;2023-03-14T07:33:12;6.32;;;4.32;;
23531;SDS011;11943;52.270;20.978;2023-03-14T07:35:37;8.80;;;4.53;;
23531;SDS011;11943;52.270;20.978;2023-03-14T07:38:03;7.03;;;4.30;;
23531;SDS011;11943;52.270;20.978;2023-03-14T07:40:29;7.07;;;4.72;;
23531;SDS011;11943;52.270;20.978;2023-03-14T07:42:54;9.15;;;4.82;;
23531;SDS011;11943;52.270;20.978;2023-03-14T07:45:20;8.07;;;4.45;;
23531;SDS011;11943;52.270;20.978;2023-03-14T07:47:47;9.60;;;4.50;;
23531;SDS011;11943;52.270;20.978;2023-03-14T07:50:13;11.50;;;4.43;;
23531;SDS011;11943;52.270;20.978;2023-03-14T07:52:38;7.50;;;4.47;;
23531;SDS011;11943;52.270;20.978;2023-03-14T07:55:04;8.10;;;4.53;;
23531;SDS011;11943;52.270;20.978;2023-03-14T07:57:30;11.57;;;5.38;;
23531;SDS011;11943;52.270;20.978;2023-03-14T07:59:56;10.00;;;4.72;;
23531;SDS011;11943;52.270;20.978;2023-03-14T08:02:22;9.38;;;4.47;;
23531;SDS011;11943;52.270;20.978;2023-03-14T08:04:49;8.67;;;5.60;;
23531;SDS011;11943;52.270;20.978;2023-03-14T08:07:15;10.75;;;5.00;;
23531;SDS011;11943;52.270;20.978;2023-03-14T08:09:40;7.18;;;3.97;;
23531;SDS011;11943;52.270;20.978;2023-03-14T08:12:06;10.80;;;4.50;;
23531;SDS011;11943;52.270;20.978;2023-03-14T08:14:32;8.93;;;4.70;;
23531;SDS011;11943;52.270;20.978;2023-03-14T08:16:58;14.60;;;5.00;;
23531;SDS011;11943;52.270;20.978;2023-03-14T08:19:23;10.45;;;4.35;;
23531;SDS011;11943;52.270;20.978;2023-03-14T08:21:49;5.68;;;4.40;;
23531;SDS011;11943;52.270;20.978;2023-03-14T08:24:15;9.30;;;4.50;;
23531;SDS011;11943;52.270;20.978;2023-03-14T08:26:41;11.32;;;4.90;;
23531;SDS011;11943;52.270;20.978;2023-03-14T08:29:07;13.75;;;4.97;;
23531;SDS011;11943;52.270;20.978;2023-03-14T08:31:33;8.73;;;4.03;;
23531;SDS011;11943;52.270;20.978;2023-03-14T08:34:00;7.43;;;4.50;;
23531;SDS011;11943;52.270;20.978;2023-03-14T08:36:27;12.20;;;4.35;;
23531;SDS011;11943;52.270;20.978;2023-03-14T08:38:52;7.63;;;4.38;;
23531;SDS011;11943;52.270;20.978;2023-03-14T08:41:18;11.88;;;4.35;;
23531;SDS011;11943;52.270;20.978;2023-03-14T08:43:44;6.50;;;3.60;;
23531;SDS011;11943;52.270;20.978;2023-03-14T08:46:09;8.32;;;4.10;;
23531;SDS011;11943;52.270;20.978;2023-03-14T08:48:35;9.90;;;5.00;;
23531;SDS011;11943;52.270;20.978;2023-03-14T08:51:11;7.45;;;3.80;;
23531;SDS011;11943;52.270;20.978;2023-03-14T08:56:04;9.60;;;3.88;;
23531;SDS011;11943;52.270;20.978;2023-03-14T08:58:31;5.20;;;3.50;;
23531;SDS011;11943;52.270;20.978;2023-03-14T09:00:57;9.02;;;4.00;;
23531;SDS011;11943;52.270;20.978;2023-03-14T09:03:23;5.65;;;3.95;;
23531;SDS011;11943;52.270;20.978;2023-03-14T09:05:50;9.68;;;4.85;;
23531;SDS011;11943;52.270;20.978;2023-03-14T09:08:16;7.00;;;3.88;;
23531;SDS011;11943;52.270;20.978;2023-03-14T09:10:42;10.07;;;4.25;;
23531;SDS011;11943;52.270;20.978;2023-03-14T09:13:08;11.23;;;3.92;;
23531;SDS011;11943;52.270;20.978;2023-03-14T09:15:33;10.48;;;4.32;;
23531;SDS011;11943;52.270;20.978;2023-03-14T09:17:59;6.70;;;4.18;;
23531;SDS011;11943;52.270;20.978;2023-03-14T09:20:25;5.78;;;3.78;;
23531;SDS011;11943;52.270;20.978;2023-03-14T09:22:51;6.65;;;4.07;;
23531;SDS011;11943;52.270;20.978;2023-03-14T09:25:16;5.15;;;3.42;;
23531;SDS011;11943;52.270;20.978;2023-03-14T09:27:42;11.15;;;4.07;;
23531;SDS011;11943;52.270;20.978;2023-03-14T09:30:08;4.88;;;3.15;;
23531;SDS011;11943;52.270;20.978;2023-03-14T09:32:34;7.28;;;4.25;;
23531;SDS011;11943;52.270;20.978;2023-03-14T09:35:00;6.13;;;3.83;;
23531;SDS011;11943;52.270;20.978;2023-03-14T09:37:25;7.00;;;3.50;;
23531;SDS011;11943;52.270;20.978;2023-03-14T09:39:51;6.30;;;4.00;;
23531;SDS011;11943;52.270;20.978;2023-03-14T09:42:18;13.65;;;4.10;;
23531;SDS011;11943;52.270;20.978;2023-03-14T09:47:15;12.88;;;3.80;;
23531;SDS011;11943;52.270;20.978;2023-03-14T09:49:44;5.80;;;3.53;;
23531;SDS011;11943;52.270;20.978;2023-03-14T09:52:13;5.88;;;3.40;;
23531;SDS011;11943;52.270;20.978;2023-03-14T09:54:49;4.78;;;3.00;;
23531;SDS011;11943;52.270;20.978;2023-03-14T09:57:17;6.72;;;3.42;;
23531;SDS011;11943;52.270;20.978;2023-03-14T09:59:45;8.10;;;3.30;;
23531;SDS011;11943;52.270;20.978;2023-03-14T10:02:23;6.95;;;3.40;;
23531;SDS011;11943;52.270;20.978;2023-03-14T10:04:51;6.13;;;3.72;;
23531;SDS011;11943;52.270;20.978;2023-03-14T10:07:21;6.25;;;3.28;;
23531;SDS011;11943;52.270;20.978;2023-03-14T10:09:55;8.25;;;3.47;;
23531;SDS011;11943;52.270;20.978;2023-03-14T10:12:32;7.03;;;3.38;;
23531;SDS011;11943;52.270;20.978;2023-03-14T10:15:10;7.13;;;3.63;;
23531;SDS011;11943;52.270;20.978;2023-03-14T10:17:42;5.80;;;3.17;;
23531;SDS011;11943;52.270;20.978;2023-03-14T10:23:20;8.32;;;3.35;;
23531;SDS011;11943;52.270;20.978;2023-03-14T10:25:58;8.18;;;4.10;;
23531;SDS011;11943;52.270;20.978;2023-03-14T10:28:44;8.82;;;3.60;;
23531;SDS011;11943;52.270;20.978;2023-03-14T10:31:12;6.78;;;3.58;;
23531;SDS011;11943;52.270;20.978;2023-03-14T10:33:39;8.15;;;3.42;;
23531;SDS011;11943;52.270;20.978;2023-03-14T10:38:56;9.83;;;3.77;;
23531;SDS011;11943;52.270;20.978;2023-03-14T10:41:30;5.85;;;3.22;;
23531;SDS011;11943;52.270;20.978;2023-03-14T10:43:58;8.38;;;3.45;;
23531;SDS011;11943;52.270;20.978;2023-03-14T10:46:26;5.78;;;3.53;;
23531;SDS011;11943;52.270;20.978;2023-03-14T10:48:56;5.90;;;3.88;;
23531;SDS011;11943;52.270;20.978;2023-03-14T10:51:24;8.23;;;3.88;;
23531;SDS011;11943;52.270;20.978;2023-03-14T10:53:56;5.65;;;3.30;;
23531;SDS011;11943;52.270;20.978;2023-03-14T10:56:23;5.40;;;3.33;;
23531;SDS011;11943;52.270;20.978;2023-03-14T10:58:53;13.38;;;3.63;;
23531;SDS011;11943;52.270;20.978;2023-03-14T11:06:53;7.55;;;3.45;;
23531;SDS011;11943;52.270;20.978;2023-03-14T11:09:30;10.32;;;3.45;;
23531;SDS011;11943;52.270;20.978;2023-03-14T11:15:04;8.65;;;3.90;;
23531;SDS011;11943;52.270;20.978;2023-03-14T11:20:51;8.90;;;3.80;;
23531;SDS011;11943;52.270;20.978;2023-03-14T11:23:24;7.20;;;3.50;;
23531;SDS011;11943;52.270;20.978;2023-03-14T11:26:01;8.40;;;4.05;;
23531;SDS011;11943;52.270;20.978;2023-03-14T11:28:46;6.40;;;3.65;;
23531;SDS011;11943;52.270;20.978;2023-03-14T11:31:27;7.60;;;3.78;;
23531;SDS011;11943;52.270;20.978;2023-03-14T11:36:31;19.15;;;4.85;;
23531;SDS011;11943;52.270;20.978;2023-03-14T11:39:03;5.32;;;3.50;;
23531;SDS011;11943;52.270;20.978;2023-03-14T11:41:39;6.35;;;3.65;;
23531;SDS011;11943;52.270;20.978;2023-03-14T11:44:14;9.73;;;4.18;;
23531;SDS011;11943;52.270;20.978;2023-03-14T11:52:11;6.93;;;4.20;;
23531;SDS011;11943;52.270;20.978;2023-03-14T11:54:55;7.03;;;3.80;;
23531;SDS011;11943;52.270;20.978;2023-03-14T11:57:43;11.80;;;4.57;;
23531;SDS011;11943;52.270;20.978;2023-03-14T12:00:16;7.78;;;4.22;;
23531;SDS011;11943;52.270;20.978;2023-03-14T12:08:33;10.30;;;4.68;;
23531;SDS011;11943;52.270;20.978;2023-03-14T12:13:40;6.82;;;4.53;;
23531;SDS011;11943;52.270;20.978;2023-03-14T12:18:45;5.82;;;3.92;;
23531;SDS011;11943;52.270;20.978;2023-03-14T12:21:11;9.55;;;4.13;;
23531;SDS011;11943;52.270;20.978;2023-03-14T12:44:53;13.05;;;4.85;;
23531;SDS011;11943;52.270;20.978;2023-03-14T12:48:00;15.80;;;5.32;;
23531;SDS011;11943;52.270;20.978;2023-03-14T12:50:54;9.27;;;4.75;;
23531;SDS011;11943;52.270;20.978;2023-03-14T13:01:29;7.38;;;5.15;;
23531;SDS011;11943;52.270;20.978;2023-03-14T13:04:02;8.82;;;4.97;;
23531;SDS011;11943;52.270;20.978;2023-03-14T13:06:50;8.52;;;5.50;;
23531;SDS011;11943;52.270;20.978;2023-03-14T13:12:16;13.63;;;6.47;;
23531;SDS011;11943;52.270;20.978;2023-03-14T13:14:47;9.52;;;5.63;;
23531;SDS011;11943;52.270;20.978;2023-03-14T13:17:15;9.98;;;5.07;;
23531;SDS011;11943;52.270;20.978;2023-03-14T13:19:44;12.80;;;6.03;;
23531;SDS011;11943;52.270;20.978;2023-03-14T13:22:38;9.98;;;5.38;;
23531;SDS011;11943;52.270;20.978;2023-03-14T13:25:05;7.93;;;5.47;;
23531;SDS011;11943;52.270;20.978;2023-03-14T13:27:32;10.55;;;5.82;;
23531;SDS011;11943;52.270;20.978;2023-03-14T13:32:42;11.52;;;5.90;;
23531;SDS011;11943;52.270;20.978;2023-03-14T13:37:51;10.68;;;5.95;;
23531;SDS011;11943;52.270;20.978;2023-03-14T13:40:23;11.35;;;6.38;;
23531;SDS011;11943;52.270;20.978;2023-03-14T13:43:04;9.65;;;6.13;;
23531;SDS011;11943;52.270;20.978;2023-03-14T13:45:55;13.40;;;6.88;;
23531;SDS011;11943;52.270;20.978;2023-03-14T13:48:55;12.75;;;6.30;;
23531;SDS011;11943;52.270;20.978;2023-03-14T13:51:26;14.65;;;7.00;;
23531;SDS011;11943;52.270;20.978;2023-03-14T13:53:57;12.98;;;6.88;;
23531;SDS011;11943;52.270;20.978;2023-03-14T13:56:26;12.27;;;6.40;;
23531;SDS011;11943;52.270;20.978;2023-03-14T13:58:53;13.38;;;7.57;;
23531;SDS011;11943;52.270;20.978;2023-03-14T14:01:29;13.05;;;7.15;;
23531;SDS011;11943;52.270;20.978;2023-03-14T14:04:13;15.48;;;6.93;;
23531;SDS011;11943;52.270;20.978;2023-03-14T14:06:57;10.88;;;7.05;;
23531;SDS011;11943;52.270;20.978;2023-03-14T14:09:24;17.58;;;7.60;;
23531;SDS011;11943;52.270;20.978;2023-03-14T14:11:54;13.80;;;7.47;;
23531;SDS011;11943;52.270;20.978;2023-03-14T14:14:22;13.50;;;7.72;;
23531;SDS011;11943;52.270;20.978;2023-03-14T14:16:57;11.80;;;7.72;;
23531;SDS011;11943;52.270;20.978;2023-03-14T14:19:25;14.38;;;7.38;;
23531;SDS011;11943;52.270;20.978;2023-03-14T14:21:53;12.75;;;7.00;;
23531;SDS011;11943;52.270;20.978;2023-03-14T14:24:19;10.68;;;6.90;;
23531;SDS011;11943;52.270;20.978;2023-03-14T14:26:59;10.98;;;7.00;;
23531;SDS011;11943;52.270;20.978;2023-03-14T14:29:38;13.30;;;7.78;;
23531;SDS011;11943;52.270;20.978;2023-03-14T14:37:30;16.85;;;8.30;;
23531;SDS011;11943;52.270;20.978;2023-03-14T14:39:58;18.20;;;8.13;;
23531;SDS011;11943;52.270;20.978;2023-03-14T14:42:31;12.65;;;6.93;;
23531;SDS011;11943;52.270;20.978;2023-03-14T14:44:57;11.43;;;7.07;;
23531;SDS011;11943;52.270;20.978;2023-03-14T14:47:25;14.43;;;7.80;;
23531;SDS011;11943;52.270;20.978;2023-03-14T14:49:53;9.68;;;6.40;;
23531;SDS011;11943;52.270;20.978;2023-03-14T14:52:21;8.45;;;6.00;;
23531;SDS011;11943;52.270;20.978;2023-03-14T14:54:59;11.32;;;6.32;;
23531;SDS011;11943;52.270;20.978;2023-03-14T14:57:31;11.10;;;5.95;;
23531;SDS011;11943;52.270;20.978;2023-03-14T15:00:03;12.70;;;6.20;;
23531;SDS011;11943;52.270;20.978;2023-03-14T15:02:53;10.40;;;6.97;;
23531;SDS011;11943;52.270;20.978;2023-03-14T15:05:25;10.82;;;5.85;;
23531;SDS011;11943;52.270;20.978;2023-03-14T15:07:55;17.30;;;6.70;;
23531;SDS011;11943;52.270;20.978;2023-03-14T15:10:22;11.43;;;6.97;;
23531;SDS011;11943;52.270;20.978;2023-03-14T15:12:49;12.38;;;6.55;;
23531;SDS011;11943;52.270;20.978;2023-03-14T15:15:15;11.07;;;6.10;;
23531;SDS011;11943;52.270;20.978;2023-03-14T15:17:42;19.27;;;6.57;;
23531;SDS011;11943;52.270;20.978;2023-03-14T15:20:16;10.48;;;6.25;;
23531;SDS011;11943;52.270;20.978;2023-03-14T15:22:44;11.73;;;6.70;;
23531;SDS011;11943;52.270;20.978;2023-03-14T15:25:10;17.02;;;6.70;;
23531;SDS011;11943;52.270;20.978;2023-03-14T15:27:37;12.25;;;6.90;;
23531;SDS011;11943;52.270;20.978;2023-03-14T15:30:09;13.43;;;6.45;;
23531;SDS011;11943;52.270;20.978;2023-03-14T15:32:39;14.52;;;6.22;;
23531;SDS011;11943;52.270;20.978;2023-03-14T15:35:05;12.00;;;6.82;;
23531;SDS011;11943;52.270;20.978;2023-03-14T15:37:32;9.45;;;6.05;;
23531;SDS011;11943;52.270;20.978;2023-03-14T15:39:58;14.52;;;7.57;;
23531;SDS011;11943;52.270;20.978;2023-03-14T15:42:24;11.05;;;6.50;;
23531;SDS011;11943;52.270;20.978;2023-03-14T15:44:49;14.80;;;7.18;;
23531;SDS011;11943;52.270;20.978;2023-03-14T15:47:15;15.13;;;7.07;;
23531;SDS011;11943;52.270;20.978;2023-03-14T15:49:41;13.45;;;7.32;;
23531;SDS011;11943;52.270;20.978;2023-03-14T15:52:07;12.18;;;7.30;;
23531;SDS011;11943;52.270;20.978;2023-03-14T15:54:34;15.25;;;7.18;;
23531;SDS011;11943;52.270;20.978;2023-03-14T15:56:59;12.00;;;7.20;;
23531;SDS011;11943;52.270;20.978;2023-03-14T15:59:25;11.13;;;7.03;;
23531;SDS011;11943;52.270;20.978;2023-03-14T16:01:51;12.02;;;7.80;;
23531;SDS011;11943;52.270;20.978;2023-03-14T16:04:17;17.00;;;7.85;;
23531;SDS011;11943;52.270;20.978;2023-03-14T16:06:43;13.18;;;7.05;;
23531;SDS011;11943;52.270;20.978;2023-03-14T16:09:10;12.93;;;7.40;;
23531;SDS011;11943;52.270;20.978;2023-03-14T16:11:38;14.13;;;7.43;;
23531;SDS011;11943;52.270;20.978;2023-03-14T16:14:04;12.90;;;7.47;;